Aérodrome :
LOGIN :

S'inscrire | Disclaimer

   EN    FR    IT 

 










Légende :    VFR   VFR Marginal   IFR   IFR Intensif   IFR Très Intensif
Visi : 
Plafond : 
>= 8 km
>= 3000ft
5 à 8 km
1000 à 3000 ft
1500m à 5 km
500 à 1000 ft
800 à 1500m
200 à 500 ft
< 800m
< 200 ft
Symboles :   Orages  Brouillard  Fortes neiges  Fortes précipitations  Vent > 20 kt
SIGMETs :   Divers  Orages  Givrage  Turbulence  Onde Orograph.  Cendres Volcan.






- Altitude de l'aérodrome : 313 ft
- Code IATA : LEH


LFOH - Le Havre Octeville

DERNIER METAR :
  • 220500Z AUTO 24010KT 9999 FEW010 BKN034 BKN190 05/04 Q0991

METARs EXPIRÉS :
  • 220430Z AUTO 23006KT 9999 FEW035 BKN180 OVC200 06/05 Q0991
  • 220400Z AUTO 24007KT 9999 FEW020 SCT034 BKN190 06/04 Q0991
  • 220330Z AUTO 25009KT 9999 FEW020 BKN035 06/05 Q0991
  • 220300Z AUTO 26007KT 230V290 9999 FEW013 BKN035 06/05 Q0991
  • 220230Z AUTO 24007KT 210V270 9999 FEW022 BKN029 BKN035 06/04 Q0991

TAF AMD TAF LFOH
Valide du 21 à 16h jusqu'au 22 à 12h UTC


211636Z 2116/2212 20015G25KT 9999 SCT012 BKN025
TEMPO 2117/2120 20020G35KT 2000 RA BKN004 BKN020CB
FM212000 33012KT 9999 RA BKN008 OVC015
BECMG 2120/2123 24013KT NSW BKN030
TEMPO 2123/2202 30015G25KT 4000 SHRA BKN030TCU
BECMG 2210/2212 30010KT
ATIS : +33 2 35 54 64 93



MET'MAP, la Météo Aéronautique d'un coup d'oeil ! - Copyright ORBIFLY Décembre 2007 - Disclaimer

ORBIFLY MET'MAP TEAM :

Programmation & Développement : Alexandra Zaïnal
Sur une idée originale de : Baudouin d'Aumeries
Assistance à la programmation : Marc-Olivier Méhu
Soutien technique & logistique : Manuel Goepfert

Contact : metmap@orbifly.com




SOURCES & CREDITS :

   NOAA